Time;durP1;ratioP1;P1;durP2;ratioP2;P2;SDS_P1;SDS_P2;PMS_P1;PMS_P2;Temp;Humidity;BMP_temperature;BMP_pressure;BME280_temperature;BME280_humidity;BME280_pressure;Samples;Min_cycle;Max_cycle;Signal;HPM_P1;HPM_P2
2023/03/04 00:00:30;;;;;;;64.20;27.07;;;;;;;;;;5095229;28;20202;-46
2023/03/04 00:03:17;;;;;;;74.70;32.63;;;;;;;;;;5094657;28;20657;-47
2023/03/04 00:05:46;;;;;;;75.07;33.50;;;;;;;;;;5095228;28;20203;-46
2023/03/04 00:08:13;;;;;;;72.30;32.30;;;;;;;;;;5094839;28;20198;-46
2023/03/04 00:10:40;;;;;;;76.63;34.57;;;;;;;;;;5095015;28;20276;-45
2023/03/04 00:13:07;;;;;;;85.37;36.13;;;;;;;;;;5094992;28;20267;-46
2023/03/04 00:15:34;;;;;;;80.67;35.13;;;;;;;;;;5095660;28;20500;-46
2023/03/04 00:18:01;;;;;;;83.17;35.50;;;;;;;;;;5094573;28;20676;-47
2023/03/04 00:20:29;;;;;;;77.80;33.93;;;;;;;;;;5094713;28;20663;-47
2023/03/04 00:22:56;;;;;;;80.13;35.20;;;;;;;;;;5094660;28;20226;-46
2023/03/04 00:25:23;;;;;;;87.17;38.03;;;;;;;;;;5094557;28;20195;-46
2023/03/04 00:27:50;;;;;;;81.47;38.13;;;;;;;;;;5086730;28;20199;-46
2023/03/04 00:30:17;;;;;;;72.40;35.07;;;;;;;;;;5073764;28;20206;-46
2023/03/04 00:32:44;;;;;;;78.00;34.47;;;;;;;;;;5074368;28;20509;-46
2023/03/04 00:35:12;;;;;;;67.83;30.63;;;;;;;;;;5073806;28;20569;-46
2023/03/04 00:37:39;;;;;;;74.73;34.33;;;;;;;;;;5074588;28;20547;-46
2023/03/04 00:40:07;;;;;;;71.30;29.83;;;;;;;;;;5074826;28;20222;-49
2023/03/04 00:42:34;;;;;;;77.27;34.00;;;;;;;;;;5094538;28;20242;-46
2023/03/04 00:45:02;;;;;;;81.20;34.60;;;;;;;;;;5094593;28;20247;-46
2023/03/04 00:47:30;;;;;;;79.63;34.57;;;;;;;;;;5094856;28;20209;-47
2023/03/04 00:49:57;;;;;;;78.33;37.03;;;;;;;;;;5094975;28;20222;-46
2023/03/04 00:52:24;;;;;;;74.90;35.50;;;;;;;;;;5094860;28;20218;-46
2023/03/04 00:54:51;;;;;;;82.40;35.40;;;;;;;;;;5094456;28;20210;-48
2023/03/04 00:57:18;;;;;;;83.30;39.30;;;;;;;;;;5094599;28;20263;-46
2023/03/04 00:59:46;;;;;;;87.47;42.30;;;;;;;;;;5094374;28;20264;-46
2023/03/04 01:02:13;;;;;;;70.87;33.57;;;;;;;;;;5094463;28;20234;-47
2023/03/04 01:04:41;;;;;;;75.33;31.40;;;;;;;;;;5098274;28;20290;-46
2023/03/04 01:07:09;;;;;;;75.33;31.73;;;;;;;;;;5097335;28;20214;-47
2023/03/04 01:09:36;;;;;;;66.73;32.43;;;;;;;;;;5097023;28;20207;-46
2023/03/04 01:12:03;;;;;;;80.53;35.50;;;;;;;;;;5098156;28;20540;-46
2023/03/04 01:14:31;;;;;;;78.53;36.50;;;;;;;;;;5098154;28;20203;-46
2023/03/04 01:16:58;;;;;;;82.27;35.47;;;;;;;;;;5098022;28;20532;-46
2023/03/04 01:19:25;;;;;;;83.40;37.73;;;;;;;;;;5097954;28;20248;-46
2023/03/04 01:21:53;;;;;;;74.63;34.40;;;;;;;;;;5096698;28;20206;-46
2023/03/04 01:24:21;;;;;;;70.60;33.30;;;;;;;;;;5097890;28;20213;-46
2023/03/04 01:26:48;;;;;;;78.27;34.43;;;;;;;;;;5096890;28;20203;-46
2023/03/04 01:29:15;;;;;;;79.33;36.33;;;;;;;;;;5097014;28;20207;-46
2023/03/04 01:31:42;;;;;;;77.77;37.20;;;;;;;;;;5097181;28;20279;-45
2023/03/04 01:34:09;;;;;;;76.10;36.87;;;;;;;;;;5096931;28;20203;-46
2023/03/04 01:36:36;;;;;;;74.67;33.90;;;;;;;;;;5096688;28;20203;-46
2023/03/04 01:39:04;;;;;;;71.17;33.23;;;;;;;;;;5097595;28;20198;-46
2023/03/04 01:41:32;;;;;;;71.63;32.63;;;;;;;;;;5098089;28;20268;-47
2023/03/04 01:44:01;;;;;;;71.03;35.20;;;;;;;;;;5096944;28;20226;-46
2023/03/04 01:46:29;;;;;;;75.13;36.17;;;;;;;;;;5096681;28;20207;-47
2023/03/04 01:48:57;;;;;;;79.63;36.33;;;;;;;;;;5097414;28;20232;-46
2023/03/04 01:51:24;;;;;;;76.67;34.17;;;;;;;;;;5097631;28;20211;-47
2023/03/04 01:53:53;;;;;;;73.83;33.43;;;;;;;;;;5097506;28;20198;-46
2023/03/04 01:56:23;;;;;;;73.10;35.10;;;;;;;;;;5096952;28;20641;-45
2023/03/04 01:59:06;;;;;;;73.17;35.03;;;;;;;;;;5096361;28;20203;-46
2023/03/04 02:01:36;;;;;;;72.97;35.47;;;;;;;;;;5096872;28;20202;-46
2023/03/04 02:04:04;;;;;;;77.90;35.23;;;;;;;;;;5095967;28;20288;-46
2023/03/04 02:06:34;;;;;;;74.37;35.70;;;;;;;;;;5096304;28;20255;-46
2023/03/04 02:09:01;;;;;;;74.83;32.70;;;;;;;;;;5096286;28;20207;-46
2023/03/04 02:11:28;;;;;;;72.13;34.57;;;;;;;;;;5096125;28;20267;-46
2023/03/04 02:13:55;;;;;;;72.40;33.87;;;;;;;;;;5095653;28;20633;-46
2023/03/04 02:16:23;;;;;;;70.67;33.37;;;;;;;;;;5096032;28;20199;-46
2023/03/04 02:18:50;;;;;;;79.53;34.30;;;;;;;;;;5096369;28;20317;-45
2023/03/04 02:21:24;;;;;;;71.30;33.60;;;;;;;;;;5095537;28;20715;-47
2023/03/04 02:23:55;;;;;;;71.20;34.60;;;;;;;;;;5096067;28;20222;-46
2023/03/04 02:26:24;;;;;;;74.87;32.47;;;;;;;;;;5078855;28;20622;-46
2023/03/04 02:28:54;;;;;;;69.33;33.07;;;;;;;;;;5096828;28;20211;-47
2023/03/04 02:31:39;;;;;;;70.40;31.90;;;;;;;;;;5095788;28;20210;-45
2023/03/04 02:34:11;;;;;;;80.87;35.83;;;;;;;;;;5095571;28;20229;-46
2023/03/04 02:36:39;;;;;;;68.37;31.83;;;;;;;;;;5079082;28;20202;-46
2023/03/04 02:39:22;;;;;;;86.23;39.30;;;;;;;;;;5095559;28;20293;-46
2023/03/04 02:41:52;;;;;;;71.73;36.33;;;;;;;;;;5095926;28;20275;-47
2023/03/04 02:44:35;;;;;;;64.33;31.77;;;;;;;;;;5095537;28;20256;-45
2023/03/04 02:47:06;;;;;;;70.53;30.83;;;;;;;;;;5096387;28;20187;-45
2023/03/04 02:49:35;;;;;;;62.63;29.77;;;;;;;;;;5097402;28;20202;-46
2023/03/04 02:52:06;;;;;;;61.63;27.23;;;;;;;;;;5078429;28;20203;-45
2023/03/04 02:54:34;;;;;;;66.80;31.77;;;;;;;;;;5095183;28;20217;-46
2023/03/04 02:57:04;;;;;;;68.23;31.63;;;;;;;;;;5095264;28;20206;-47
2023/03/04 02:59:34;;;;;;;68.40;30.03;;;;;;;;;;5095156;28;20632;-45
2023/03/04 03:02:03;;;;;;;69.27;31.13;;;;;;;;;;5094846;28;20191;-46
2023/03/04 03:04:32;;;;;;;65.80;29.20;;;;;;;;;;5095749;28;20244;-46
2023/03/04 03:06:59;;;;;;;66.87;31.30;;;;;;;;;;5078375;28;20203;-46
2023/03/04 03:09:27;;;;;;;62.20;30.03;;;;;;;;;;5096086;28;20198;-47
2023/03/04 03:11:55;;;;;;;66.27;30.87;;;;;;;;;;5095076;28;20203;-47
2023/03/04 03:14:22;;;;;;;49.93;22.33;;;;;;;;;;5094681;28;20260;-47
2023/03/04 03:16:50;;;;;;;60.93;29.30;;;;;;;;;;5095368;28;20202;-46
2023/03/04 03:19:17;;;;;;;69.97;31.27;;;;;;;;;;5094945;28;20234;-45
2023/03/04 03:21:44;;;;;;;69.80;30.20;;;;;;;;;;5095701;28;20213;-46
2023/03/04 03:24:13;;;;;;;66.30;31.17;;;;;;;;;;5095259;28;20222;-45
2023/03/04 03:26:40;;;;;;;95.27;45.30;;;;;;;;;;5095020;28;20633;-46
2023/03/04 03:29:07;;;;;;;65.67;31.53;;;;;;;;;;5094670;28;20194;-45
2023/03/04 03:31:34;;;;;;;68.47;30.70;;;;;;;;;;5095524;28;20207;-45
2023/03/04 03:34:02;;;;;;;66.47;30.50;;;;;;;;;;5095873;28;20203;-46
2023/03/04 03:36:29;;;;;;;62.20;27.23;;;;;;;;;;5094601;28;20268;-46
2023/03/04 03:38:56;;;;;;;57.17;24.40;;;;;;;;;;5095252;28;20229;-46
2023/03/04 03:41:23;;;;;;;63.73;27.67;;;;;;;;;;5095163;28;20202;-45
2023/03/04 03:43:50;;;;;;;66.27;30.90;;;;;;;;;;5095105;28;20222;-45
2023/03/04 03:46:18;;;;;;;56.07;22.63;;;;;;;;;;5094944;28;20202;-46
2023/03/04 03:48:45;;;;;;;80.97;36.83;;;;;;;;;;5094678;28;20207;-46
2023/03/04 03:51:12;;;;;;;65.13;29.43;;;;;;;;;;5094911;28;20641;-48
2023/03/04 03:53:39;;;;;;;46.80;21.90;;;;;;;;;;5095251;28;20215;-46
2023/03/04 03:56:06;;;;;;;60.50;26.30;;;;;;;;;;5094842;28;20260;-46
2023/03/04 03:58:33;;;;;;;71.80;31.70;;;;;;;;;;5094885;28;20213;-46
2023/03/04 04:01:01;;;;;;;61.70;28.07;;;;;;;;;;5095425;28;20259;-46
2023/03/04 04:03:28;;;;;;;64.00;27.67;;;;;;;;;;5095028;28;20222;-46
2023/03/04 04:05:55;;;;;;;66.33;30.53;;;;;;;;;;5095020;28;20236;-46
2023/03/04 04:08:22;;;;;;;52.63;23.03;;;;;;;;;;5094923;28;20199;-47
2023/03/04 04:10:50;;;;;;;64.23;29.80;;;;;;;;;;5094662;28;20206;-46
2023/03/04 04:13:17;;;;;;;42.60;19.07;;;;;;;;;;5095028;28;20202;-45
2023/03/04 04:15:44;;;;;;;56.47;27.23;;;;;;;;;;5094932;28;20209;-46
2023/03/04 04:18:11;;;;;;;56.83;25.33;;;;;;;;;;5094920;28;20557;-46
2023/03/04 04:20:38;;;;;;;62.50;27.63;;;;;;;;;;5088394;28;20264;-46
2023/03/04 04:23:05;;;;;;;55.00;24.40;;;;;;;;;;5083104;28;20244;-46
2023/03/04 04:25:33;;;;;;;59.97;27.50;;;;;;;;;;5075464;28;20211;-45
2023/03/04 04:28:00;;;;;;;48.93;22.80;;;;;;;;;;5074624;28;20273;-45
2023/03/04 04:30:27;;;;;;;45.90;22.53;;;;;;;;;;5074776;28;20518;-45
2023/03/04 04:32:54;;;;;;;55.50;24.23;;;;;;;;;;5074301;28;20207;-45
2023/03/04 04:35:22;;;;;;;54.53;26.77;;;;;;;;;;5074793;28;20268;-47
2023/03/04 04:37:49;;;;;;;51.27;25.37;;;;;;;;;;5075369;28;20195;-46
2023/03/04 04:40:16;;;;;;;50.90;20.67;;;;;;;;;;5079189;28;20208;-46
2023/03/04 04:42:43;;;;;;;50.93;22.97;;;;;;;;;;5077334;28;20625;-46
2023/03/04 04:45:10;;;;;;;50.90;24.33;;;;;;;;;;5078409;28;20222;-46
2023/03/04 04:47:37;;;;;;;53.90;26.83;;;;;;;;;;5078135;28;20206;-47
2023/03/04 04:50:05;;;;;;;38.53;19.10;;;;;;;;;;5078085;28;20202;-47
2023/03/04 04:52:32;;;;;;;40.17;18.73;;;;;;;;;;5077953;28;20214;-45
2023/03/04 04:54:59;;;;;;;53.53;23.67;;;;;;;;;;5077981;28;20203;-46
2023/03/04 04:57:26;;;;;;;33.80;17.37;;;;;;;;;;5077673;28;20645;-46
2023/03/04 04:59:53;;;;;;;43.33;19.53;;;;;;;;;;5077583;28;20237;-46
2023/03/04 05:02:20;;;;;;;47.27;20.70;;;;;;;;;;5077681;28;20230;-46
2023/03/04 05:04:48;;;;;;;35.73;16.63;;;;;;;;;;5077397;28;20231;-45
2023/03/04 05:07:15;;;;;;;51.83;24.97;;;;;;;;;;5077469;28;20231;-46
2023/03/04 05:09:42;;;;;;;43.73;18.10;;;;;;;;;;5077704;28;20203;-46
2023/03/04 05:12:09;;;;;;;50.93;21.13;;;;;;;;;;5077331;28;20199;-45
2023/03/04 05:14:36;;;;;;;34.10;16.73;;;;;;;;;;5077512;28;20272;-46
2023/03/04 05:17:03;;;;;;;37.43;16.30;;;;;;;;;;5077235;28;20211;-45
2023/03/04 05:19:31;;;;;;;26.53;13.07;;;;;;;;;;5077279;28;20211;-46
2023/03/04 05:21:57;;;;;;;38.27;18.47;;;;;;;;;;5077464;28;20207;-47
2023/03/04 05:24:25;;;;;;;45.47;20.17;;;;;;;;;;5077298;28;20231;-46
2023/03/04 05:26:52;;;;;;;48.33;21.20;;;;;;;;;;5077262;28;20207;-45
2023/03/04 05:29:19;;;;;;;43.63;20.63;;;;;;;;;;5077264;28;20203;-45
2023/03/04 05:31:46;;;;;;;48.03;20.83;;;;;;;;;;5077096;28;20264;-45
2023/03/04 05:34:14;;;;;;;46.20;19.37;;;;;;;;;;5076984;28;20284;-45
2023/03/04 05:36:41;;;;;;;55.73;25.27;;;;;;;;;;5077262;28;20199;-45
2023/03/04 05:39:10;;;;;;;51.50;23.77;;;;;;;;;;5076860;28;20659;-46
2023/03/04 05:41:36;;;;;;;51.60;24.03;;;;;;;;;;5076842;28;20196;-45
2023/03/04 05:44:04;;;;;;;41.23;19.17;;;;;;;;;;5076724;28;20234;-46
2023/03/04 05:46:31;;;;;;;44.43;20.30;;;;;;;;;;5076794;28;20215;-45
2023/03/04 05:48:59;;;;;;;45.30;20.20;;;;;;;;;;5079048;28;20211;-46
2023/03/04 05:51:26;;;;;;;41.27;18.27;;;;;;;;;;5096896;28;20231;-46
2023/03/04 05:53:54;;;;;;;48.07;21.77;;;;;;;;;;5097351;28;20504;-48
2023/03/04 05:56:21;;;;;;;47.70;21.90;;;;;;;;;;5097014;28;20669;-47
2023/03/04 05:58:48;;;;;;;46.03;22.20;;;;;;;;;;5097004;28;20212;-46
2023/03/04 06:01:16;;;;;;;51.50;22.17;;;;;;;;;;5097134;28;20214;-45
2023/03/04 06:03:43;;;;;;;38.57;17.87;;;;;;;;;;5097065;28;20573;-46
2023/03/04 06:06:10;;;;;;;47.80;21.77;;;;;;;;;;5096824;28;20202;-46
2023/03/04 06:08:37;;;;;;;51.27;23.90;;;;;;;;;;5090479;28;20203;-46
2023/03/04 06:11:05;;;;;;;45.80;20.43;;;;;;;;;;5080581;28;20231;-46
2023/03/04 06:13:33;;;;;;;51.17;22.50;;;;;;;;;;5095610;28;20257;-46
2023/03/04 06:16:00;;;;;;;47.07;20.47;;;;;;;;;;5095747;28;20241;-46
2023/03/04 06:18:28;;;;;;;49.97;22.20;;;;;;;;;;5093688;28;20681;-45
2023/03/04 06:20:57;;;;;;;51.97;22.93;;;;;;;;;;5084758;28;20243;-46
2023/03/04 06:23:26;;;;;;;45.10;22.03;;;;;;;;;;5088543;28;20218;-46
2023/03/04 06:25:54;;;;;;;48.10;22.23;;;;;;;;;;5095053;28;20249;-46
2023/03/04 06:28:22;;;;;;;57.07;26.13;;;;;;;;;;5095809;28;20230;-46
2023/03/04 06:30:52;;;;;;;55.33;24.57;;;;;;;;;;5095797;28;20226;-45
2023/03/04 06:33:20;;;;;;;45.20;21.33;;;;;;;;;;5095657;28;20276;-46
2023/03/04 06:35:47;;;;;;;47.40;20.60;;;;;;;;;;5089769;28;20234;-47
2023/03/04 06:38:15;;;;;;;51.07;23.63;;;;;;;;;;5094784;28;20234;-45
2023/03/04 06:40:43;;;;;;;50.70;23.07;;;;;;;;;;5094512;28;20230;-46
2023/03/04 06:43:10;;;;;;;48.93;23.20;;;;;;;;;;5095528;28;20245;-46
2023/03/04 06:45:38;;;;;;;48.43;22.20;;;;;;;;;;5095584;28;20680;-45
2023/03/04 06:48:05;;;;;;;51.47;24.50;;;;;;;;;;5089314;28;20299;-46
2023/03/04 06:50:32;;;;;;;50.27;24.30;;;;;;;;;;5095616;28;20222;-46
2023/03/04 06:53:00;;;;;;;54.40;25.33;;;;;;;;;;5095142;28;20228;-48
2023/03/04 06:55:27;;;;;;;54.67;26.93;;;;;;;;;;5094889;28;20223;-46
2023/03/04 06:57:54;;;;;;;51.17;24.77;;;;;;;;;;5094906;28;20562;-45
2023/03/04 07:00:22;;;;;;;54.53;24.57;;;;;;;;;;5094480;28;20250;-45
2023/03/04 07:02:50;;;;;;;46.00;22.70;;;;;;;;;;5094876;28;20245;-46
2023/03/04 07:05:20;;;;;;;52.70;24.97;;;;;;;;;;5095542;28;20231;-45
2023/03/04 07:07:48;;;;;;;51.37;23.07;;;;;;;;;;5094465;28;20592;-48
2023/03/04 07:10:17;;;;;;;51.27;24.07;;;;;;;;;;5094630;28;20230;-45
2023/03/04 07:12:44;;;;;;;53.23;24.33;;;;;;;;;;5094836;28;20226;-46
2023/03/04 07:15:11;;;;;;;50.17;24.87;;;;;;;;;;5095110;28;20218;-45
2023/03/04 07:17:39;;;;;;;55.23;25.07;;;;;;;;;;5094538;28;20257;-45
2023/03/04 07:20:06;;;;;;;49.97;23.43;;;;;;;;;;5094010;28;20210;-48
2023/03/04 07:22:33;;;;;;;47.07;23.23;;;;;;;;;;5094909;28;20236;-46
2023/03/04 07:25:00;;;;;;;53.20;24.63;;;;;;;;;;5093217;28;20242;-46
2023/03/04 07:27:28;;;;;;;68.97;34.70;;;;;;;;;;5094715;28;20218;-46
2023/03/04 07:29:55;;;;;;;51.90;24.53;;;;;;;;;;5094115;28;20224;-45
2023/03/04 07:32:22;;;;;;;48.00;23.53;;;;;;;;;;5094470;28;20685;-46
2023/03/04 07:34:50;;;;;;;46.57;22.87;;;;;;;;;;5094378;28;20222;-47
2023/03/04 07:37:17;;;;;;;56.17;23.87;;;;;;;;;;5094675;28;20688;-46
2023/03/04 07:39:44;;;;;;;53.63;24.33;;;;;;;;;;5093937;28;20700;-48
2023/03/04 07:42:11;;;;;;;48.43;23.43;;;;;;;;;;5094244;28;20237;-46
2023/03/04 07:44:41;;;;;;;48.53;23.60;;;;;;;;;;5092468;28;20305;-46
2023/03/04 07:47:08;;;;;;;43.73;22.97;;;;;;;;;;5075900;28;20677;-47
2023/03/04 07:49:35;;;;;;;49.43;23.43;;;;;;;;;;5074136;28;20615;-46
2023/03/04 07:52:04;;;;;;;45.00;23.37;;;;;;;;;;5074221;28;20207;-48
2023/03/04 07:54:31;;;;;;;49.23;23.17;;;;;;;;;;5074742;28;20275;-46
2023/03/04 07:56:59;;;;;;;49.73;24.00;;;;;;;;;;5074834;28;20265;-47
2023/03/04 07:59:26;;;;;;;46.53;26.40;;;;;;;;;;5074716;28;20204;-46
2023/03/04 08:01:53;;;;;;;47.43;24.97;;;;;;;;;;5074348;28;20199;-46
2023/03/04 08:04:20;;;;;;;51.60;24.70;;;;;;;;;;5074747;28;20231;-47
2023/03/04 08:06:47;;;;;;;38.57;22.00;;;;;;;;;;5074936;28;20191;-46
2023/03/04 08:09:14;;;;;;;46.37;22.53;;;;;;;;;;5074894;28;20203;-45
2023/03/04 08:11:42;;;;;;;49.03;24.90;;;;;;;;;;5076498;28;20222;-47
2023/03/04 08:14:11;;;;;;;46.13;22.83;;;;;;;;;;5081147;28;20534;-46
2023/03/04 08:16:38;;;;;;;45.70;24.27;;;;;;;;;;5081282;28;20203;-46
2023/03/04 08:19:06;;;;;;;45.60;22.07;;;;;;;;;;5081809;28;20226;-46
2023/03/04 08:21:34;;;;;;;44.73;23.57;;;;;;;;;;5081225;28;20267;-45
2023/03/04 08:24:06;;;;;;;46.20;21.97;;;;;;;;;;5080969;28;20227;-46
2023/03/04 08:26:42;;;;;;;40.00;21.23;;;;;;;;;;5081183;28;20214;-46
2023/03/04 08:29:15;;;;;;;46.80;21.50;;;;;;;;;;5081086;28;20625;-46
2023/03/04 08:31:45;;;;;;;46.93;23.67;;;;;;;;;;5081611;28;20203;-46
2023/03/04 08:34:16;;;;;;;43.77;23.63;;;;;;;;;;5081030;28;20275;-46
2023/03/04 08:36:43;;;;;;;46.43;23.13;;;;;;;;;;5080937;28;20214;-46
2023/03/04 08:39:15;;;;;;;47.40;22.93;;;;;;;;;;5081063;28;20199;-47
2023/03/04 08:41:42;;;;;;;38.73;18.83;;;;;;;;;;5081150;28;20840;-47
2023/03/04 08:44:09;;;;;;;43.60;20.70;;;;;;;;;;5080538;28;20223;-46
2023/03/04 08:46:39;;;;;;;44.33;22.13;;;;;;;;;;5081217;28;20695;-47
2023/03/04 08:49:06;;;;;;;43.20;22.53;;;;;;;;;;5081470;28;20214;-46
2023/03/04 08:51:34;;;;;;;39.77;20.50;;;;;;;;;;5080862;28;20723;-45
2023/03/04 08:54:02;;;;;;;43.90;21.47;;;;;;;;;;5080377;28;20238;-46
2023/03/04 08:56:30;;;;;;;39.07;19.57;;;;;;;;;;5081267;28;20210;-45
2023/03/04 08:58:57;;;;;;;45.27;19.90;;;;;;;;;;5080066;28;20264;-46
2023/03/04 09:01:25;;;;;;;41.30;19.83;;;;;;;;;;5078410;28;20646;-50
2023/03/04 09:03:52;;;;;;;38.60;21.40;;;;;;;;;;5079603;28;20206;-46
2023/03/04 09:06:19;;;;;;;38.40;20.97;;;;;;;;;;5080027;28;20566;-45
2023/03/04 09:08:46;;;;;;;42.10;22.63;;;;;;;;;;5079238;28;20203;-50
2023/03/04 09:11:14;;;;;;;37.13;18.83;;;;;;;;;;5097414;28;20229;-46
2023/03/04 09:13:41;;;;;;;39.67;20.93;;;;;;;;;;5100385;28;20214;-46
2023/03/04 09:16:11;;;;;;;40.83;20.97;;;;;;;;;;5100911;28;20227;-53
2023/03/04 09:18:38;;;;;;;40.13;19.67;;;;;;;;;;5099679;28;20688;-46
2023/03/04 09:21:07;;;;;;;39.80;20.77;;;;;;;;;;5100804;28;20214;-48
2023/03/04 09:23:35;;;;;;;39.63;20.60;;;;;;;;;;5097368;28;20200;-48
2023/03/04 09:26:17;;;;;;;39.33;19.53;;;;;;;;;;5088034;28;20226;-45
2023/03/04 09:28:44;;;;;;;39.17;19.90;;;;;;;;;;5085317;28;20198;-49
2023/03/04 09:31:13;;;;;;;25.43;13.93;;;;;;;;;;5093087;28;20230;-52
2023/03/04 09:33:41;;;;;;;37.57;18.57;;;;;;;;;;5093471;28;20226;-50
2023/03/04 09:36:10;;;;;;;46.50;24.33;;;;;;;;;;5090850;28;20255;-51
2023/03/04 09:38:38;;;;;;;35.07;20.53;;;;;;;;;;5090003;28;20242;-49
2023/03/04 09:41:09;;;;;;;41.17;21.03;;;;;;;;;;5088034;28;20595;-50
2023/03/04 09:43:38;;;;;;;31.23;17.80;;;;;;;;;;5090973;28;20251;-50
2023/03/04 09:46:14;;;;;;;33.97;17.83;;;;;;;;;;5084337;28;20657;-48
2023/03/04 09:48:50;;;;;;;38.60;19.50;;;;;;;;;;5108797;27;20310;-49
2023/03/04 09:51:53;;;;;;;36.10;18.97;;;;;;;;;;5080872;28;20238;-48
2023/03/04 09:54:41;;;;;;;39.13;18.57;;;;;;;;;;5076304;28;20226;-50
2023/03/04 09:57:43;;;;;;;44.13;19.57;;;;;;;;;;5076942;28;20292;-49
2023/03/04 10:00:11;;;;;;;33.83;19.07;;;;;;;;;;5088497;28;20230;-52
2023/03/04 10:03:06;;;;;;;37.80;20.03;;;;;;;;;;5086108;28;20227;-49
2023/03/04 10:05:38;;;;;;;47.87;22.23;;;;;;;;;;5075187;28;20278;-48
2023/03/04 10:08:14;;;;;;;40.10;22.67;;;;;;;;;;5109483;27;20228;-47
2023/03/04 10:10:43;;;;;;;38.13;21.10;;;;;;;;;;5076395;28;20245;-49
2023/03/04 10:13:15;;;;;;;40.97;21.43;;;;;;;;;;5085557;28;20239;-49
2023/03/04 10:15:45;;;;;;;36.67;20.00;;;;;;;;;;5081250;28;20676;-47
2023/03/04 10:18:21;;;;;;;39.80;21.23;;;;;;;;;;5076493;28;20308;-48
2023/03/04 10:20:55;;;;;;;40.63;20.87;;;;;;;;;;5114631;27;20233;-49
2023/03/04 10:23:28;;;;;;;41.70;20.97;;;;;;;;;;5074751;28;20714;-48
2023/03/04 10:25:55;;;;;;;33.80;19.27;;;;;;;;;;5075372;28;20234;-47
2023/03/04 10:28:25;;;;;;;37.13;20.23;;;;;;;;;;5076502;28;20227;-48
2023/03/04 10:31:05;;;;;;;33.23;17.43;;;;;;;;;;5075450;28;20515;-50
2023/03/04 10:33:37;;;;;;;33.80;19.07;;;;;;;;;;5075413;28;20550;-50
2023/03/04 10:36:26;;;;;;;35.63;19.77;;;;;;;;;;5074571;28;20533;-50
2023/03/04 10:38:59;;;;;;;33.67;19.40;;;;;;;;;;5083561;28;20238;-48
2023/03/04 10:41:29;;;;;;;36.20;19.10;;;;;;;;;;5078721;28;20238;-49
2023/03/04 10:44:13;;;;;;;39.00;20.53;;;;;;;;;;5081059;28;20219;-51
2023/03/04 10:46:45;;;;;;;36.33;19.57;;;;;;;;;;5086565;28;20235;-47
2023/03/04 10:49:15;;;;;;;34.50;18.80;;;;;;;;;;5074973;28;20219;-52
2023/03/04 10:51:44;;;;;;;39.07;18.40;;;;;;;;;;5080183;28;20223;-48
2023/03/04 10:54:23;;;;;;;31.43;17.30;;;;;;;;;;5079248;28;20219;-46
2023/03/04 10:57:14;;;;;;;35.57;16.80;;;;;;;;;;5079032;28;20250;-54
2023/03/04 11:00:01;;;;;;;33.13;17.47;;;;;;;;;;5074515;28;20657;-49
2023/03/04 11:02:34;;;;;;;38.57;18.93;;;;;;;;;;5084565;28;20217;-52
2023/03/04 11:05:14;;;;;;;27.00;16.30;;;;;;;;;;5107213;27;20227;-46
2023/03/04 11:07:47;;;;;;;33.37;17.50;;;;;;;;;;5076086;28;20291;-46
2023/03/04 11:10:38;;;;;;;32.37;16.40;;;;;;;;;;5074666;28;20727;-47
2023/03/04 11:13:16;;;;;;;32.27;16.87;;;;;;;;;;5084410;28;20258;-48
2023/03/04 11:15:51;;;;;;;29.50;15.87;;;;;;;;;;5087445;28;20226;-45
2023/03/04 11:18:30;;;;;;;34.33;16.63;;;;;;;;;;5094063;28;20236;-46
2023/03/04 11:20:58;;;;;;;31.97;16.77;;;;;;;;;;5092638;28;20222;-45
2023/03/04 11:23:34;;;;;;;26.63;13.03;;;;;;;;;;5093946;28;20226;-45
2023/03/04 11:26:04;;;;;;;31.53;15.53;;;;;;;;;;5087229;28;20591;-46
2023/03/04 11:28:46;;;;;;;28.03;16.77;;;;;;;;;;5079528;28;20227;-46
2023/03/04 11:31:16;;;;;;;32.23;15.17;;;;;;;;;;5082932;28;20288;-48
2023/03/04 11:34:01;;;;;;;31.57;16.60;;;;;;;;;;5074763;28;20231;-49
2023/03/04 11:36:35;;;;;;;30.43;16.13;;;;;;;;;;5090175;28;20226;-48
2023/03/04 11:39:04;;;;;;;27.50;15.90;;;;;;;;;;5088395;28;20226;-46
2023/03/04 11:41:38;;;;;;;26.40;15.77;;;;;;;;;;5089813;28;20719;-49
2023/03/04 11:44:07;;;;;;;30.60;16.23;;;;;;;;;;5088778;28;20213;-46
2023/03/04 11:47:05;;;;;;;30.23;16.23;;;;;;;;;;5090946;28;20241;-46
2023/03/04 11:49:32;;;;;;;40.30;17.70;;;;;;;;;;5078901;28;20592;-45
2023/03/04 11:52:18;;;;;;;32.13;16.60;;;;;;;;;;5085429;28;20215;-51
2023/03/04 11:55:06;;;;;;;28.30;14.93;;;;;;;;;;5081894;28;20281;-50
2023/03/04 11:57:49;;;;;;;31.83;15.50;;;;;;;;;;5082740;28;20703;-42
2023/03/04 12:00:36;;;;;;;32.97;18.93;;;;;;;;;;5083896;28;20211;-45
2023/03/04 12:03:12;;;;;;;24.43;12.37;;;;;;;;;;5109241;28;20671;-46
2023/03/04 12:05:49;;;;;;;32.13;19.10;;;;;;;;;;5074162;28;20254;-46
2023/03/04 12:08:40;;;;;;;36.27;18.83;;;;;;;;;;5077828;28;20221;-46
2023/03/04 12:11:19;;;;;;;35.37;16.93;;;;;;;;;;5080950;28;20664;-49
2023/03/04 12:13:54;;;;;;;36.37;19.83;;;;;;;;;;5082734;28;20226;-48
2023/03/04 12:16:23;;;;;;;36.03;17.90;;;;;;;;;;5077562;28;20213;-46
2023/03/04 12:18:58;;;;;;;19.87;9.67;;;;;;;;;;5073692;28;20239;-46
2023/03/04 12:21:54;;;;;;;37.27;19.07;;;;;;;;;;5081743;28;20198;-47
2023/03/04 12:24:25;;;;;;;31.87;18.43;;;;;;;;;;5074113;28;20264;-46
2023/03/04 12:26:52;;;;;;;38.50;18.97;;;;;;;;;;5072675;28;20650;-48
2023/03/04 12:29:47;;;;;;;36.17;18.60;;;;;;;;;;5074278;28;20204;-46
2023/03/04 12:32:27;;;;;;;39.73;19.13;;;;;;;;;;5082120;28;20298;-47
2023/03/04 12:35:01;;;;;;;30.73;18.97;;;;;;;;;;5107163;27;20203;-46
2023/03/04 12:37:40;;;;;;;32.63;17.97;;;;;;;;;;5091286;28;20199;-50
2023/03/04 12:40:34;;;;;;;33.63;17.93;;;;;;;;;;5074245;28;20211;-46
2023/03/04 12:43:32;;;;;;;36.13;18.87;;;;;;;;;;5073977;28;20597;-48
2023/03/04 12:46:27;;;;;;;38.23;19.07;;;;;;;;;;5115900;27;20555;-48
2023/03/04 12:49:19;;;;;;;37.93;20.27;;;;;;;;;;5087869;28;20234;-45
2023/03/04 12:52:15;;;;;;;38.10;18.87;;;;;;;;;;5082612;28;20207;-45
2023/03/04 12:54:45;;;;;;;42.93;20.70;;;;;;;;;;5073583;28;20207;-50
2023/03/04 12:57:22;;;;;;;40.07;20.00;;;;;;;;;;5106800;27;20211;-45
2023/03/04 13:00:13;;;;;;;45.53;22.47;;;;;;;;;;5109172;27;20196;-46
2023/03/04 13:03:01;;;;;;;41.63;22.13;;;;;;;;;;5086009;28;20792;-46
2023/03/04 13:05:34;;;;;;;42.53;20.03;;;;;;;;;;5077935;28;20216;-48
2023/03/04 13:08:45;;;;;;;44.37;22.37;;;;;;;;;;5077953;28;20527;-47
2023/03/04 13:11:27;;;;;;;42.83;22.23;;;;;;;;;;5083766;28;20191;-44
2023/03/04 13:14:04;;;;;;;42.93;23.13;;;;;;;;;;5077610;28;20641;-45
2023/03/04 13:16:43;;;;;;;50.17;24.03;;;;;;;;;;5077708;28;20214;-46
2023/03/04 13:19:45;;;;;;;46.33;23.50;;;;;;;;;;5077438;28;20235;-45
2023/03/04 13:22:36;;;;;;;47.87;23.67;;;;;;;;;;5086474;28;20222;-45
2023/03/04 13:25:29;;;;;;;48.23;23.63;;;;;;;;;;5077702;28;20192;-45
2023/03/04 13:28:01;;;;;;;48.50;24.67;;;;;;;;;;5094504;28;20205;-45
2023/03/04 13:30:32;;;;;;;59.50;28.00;;;;;;;;;;5093493;28;20190;-45
2023/03/04 13:33:08;;;;;;;51.37;24.27;;;;;;;;;;5088199;28;20222;-45
2023/03/04 13:35:47;;;;;;;54.47;26.47;;;;;;;;;;5093389;28;20229;-45
2023/03/04 13:38:24;;;;;;;54.00;25.77;;;;;;;;;;5082939;28;20254;-44
2023/03/04 13:41:18;;;;;;;50.13;25.90;;;;;;;;;;5090950;28;20230;-46
2023/03/04 13:43:56;;;;;;;48.77;24.40;;;;;;;;;;5090963;28;20230;-45
2023/03/04 13:46:23;;;;;;;51.40;25.07;;;;;;;;;;5091142;28;20224;-45
2023/03/04 13:48:50;;;;;;;52.87;25.63;;;;;;;;;;5093681;28;20210;-46
2023/03/04 13:51:30;;;;;;;55.73;25.33;;;;;;;;;;5092647;28;20199;-45
2023/03/04 13:53:57;;;;;;;53.23;25.80;;;;;;;;;;5089525;28;20640;-45
2023/03/04 13:56:35;;;;;;;56.40;25.97;;;;;;;;;;5092461;28;20228;-45
2023/03/04 13:59:06;;;;;;;60.63;27.27;;;;;;;;;;5092462;28;20190;-45
2023/03/04 14:01:47;;;;;;;51.07;25.77;;;;;;;;;;5088176;28;20211;-49
2023/03/04 14:04:33;;;;;;;60.43;26.97;;;;;;;;;;5092075;28;20194;-45
2023/03/04 14:07:17;;;;;;;52.57;25.87;;;;;;;;;;5091687;28;20207;-42
2023/03/04 14:10:03;;;;;;;55.33;25.57;;;;;;;;;;5092537;28;20203;-43
2023/03/04 14:12:36;;;;;;;53.70;26.13;;;;;;;;;;5091755;28;20206;-46
2023/03/04 14:15:15;;;;;;;50.70;23.83;;;;;;;;;;5090274;28;20195;-44
2023/03/04 14:17:49;;;;;;;58.40;26.23;;;;;;;;;;5091417;28;20222;-44
2023/03/04 14:20:37;;;;;;;51.07;25.93;;;;;;;;;;5092284;28;20524;-48
2023/03/04 14:23:24;;;;;;;51.77;25.37;;;;;;;;;;5087727;28;20199;-44
2023/03/04 14:25:51;;;;;;;45.83;21.97;;;;;;;;;;5091827;28;20297;-45
2023/03/04 14:28:19;;;;;;;46.97;21.03;;;;;;;;;;5092605;28;20199;-42
2023/03/04 14:30:54;;;;;;;45.23;25.23;;;;;;;;;;5092877;28;20272;-44
2023/03/04 14:33:24;;;;;;;48.33;22.23;;;;;;;;;;5091305;28;20251;-44
2023/03/04 14:36:01;;;;;;;32.97;17.77;;;;;;;;;;5092168;28;20235;-43
2023/03/04 14:38:35;;;;;;;42.10;21.57;;;;;;;;;;5090754;28;20256;-43
2023/03/04 14:41:05;;;;;;;39.07;20.00;;;;;;;;;;5090399;28;20198;-43